Scipio, Oklahoma
Current Conditions -  °F | °C
As of 6:53 AM on Monday 24 Nov 2014 (Local Time) from KMLC Reporting Station
Few Clouds Few Clouds  
Wind Chill: 33°   Ceiling: Unl
Heat Index: 38°   Visibility: 10mi
Dew Point: 30°   Wind: 6mph
Humidity: 73%   Direction: 270°W
Pressure: 29.92"   Gusts: NA
Location:  34.9351°N, 95.8929°W
Report Text: KMLC 241253Z AUTO 27005KT 10SM FEW110 03/M01 A2992 RMK AO2 SLP131 T00331011
Loading
Personal Weather Stations






























Interactive Weather Map New forecast layout! Learn more

10-Day Weather Forecast

Advertisements
Track Severe Weather on mobile